sensor_id;sensor_type;location;lat;lon;timestamp;temperature;humidity
39401;DHT22;54391;50.000;7.360;2023-03-26T00:02:00;6.10;54.70
39401;DHT22;54391;50.000;7.360;2023-03-26T00:04:27;6.10;55.10
39401;DHT22;54391;50.000;7.360;2023-03-26T00:06:54;6.10;54.50
39401;DHT22;54391;50.000;7.360;2023-03-26T00:09:21;6.10;54.70
39401;DHT22;54391;50.000;7.360;2023-03-26T00:16:45;6.10;54.90
39401;DHT22;54391;50.000;7.360;2023-03-26T00:19:14;6.10;54.80
39401;DHT22;54391;50.000;7.360;2023-03-26T00:24:11;6.10;54.90
39401;DHT22;54391;50.000;7.360;2023-03-26T00:26:41;6.10;55.70
39401;DHT22;54391;50.000;7.360;2023-03-26T00:31:38;6.00;55.20
39401;DHT22;54391;50.000;7.360;2023-03-26T00:34:10;6.00;55.30
39401;DHT22;54391;50.000;7.360;2023-03-26T00:36:40;6.10;55.20
39401;DHT22;54391;50.000;7.360;2023-03-26T00:39:08;6.00;55.10
39401;DHT22;54391;50.000;7.360;2023-03-26T00:41:35;6.10;55.30
39401;DHT22;54391;50.000;7.360;2023-03-26T00:44:09;6.10;55.10
39401;DHT22;54391;50.000;7.360;2023-03-26T00:46:36;6.10;54.40
39401;DHT22;54391;50.000;7.360;2023-03-26T00:54:03;6.10;54.30
39401;DHT22;54391;50.000;7.360;2023-03-26T00:58:59;6.20;53.60
39401;DHT22;54391;50.000;7.360;2023-03-26T01:01:28;6.20;54.20
39401;DHT22;54391;50.000;7.360;2023-03-26T01:03:58;6.20;53.60
39401;DHT22;54391;50.000;7.360;2023-03-26T01:06:44;6.20;53.60
39401;DHT22;54391;50.000;7.360;2023-03-26T01:09:14;6.20;53.50
39401;DHT22;54391;50.000;7.360;2023-03-26T01:11:42;6.20;54.50
39401;DHT22;54391;50.000;7.360;2023-03-26T01:14:12;6.10;54.10
39401;DHT22;54391;50.000;7.360;2023-03-26T01:16:44;6.10;54.60
39401;DHT22;54391;50.000;7.360;2023-03-26T01:19:20;6.10;54.70
39401;DHT22;54391;50.000;7.360;2023-03-26T01:21:48;6.10;55.20
39401;DHT22;54391;50.000;7.360;2023-03-26T01:27:13;6.20;54.90
39401;DHT22;54391;50.000;7.360;2023-03-26T01:29:45;6.20;54.40
39401;DHT22;54391;50.000;7.360;2023-03-26T01:32:28;6.20;54.50
39401;DHT22;54391;50.000;7.360;2023-03-26T01:35:09;6.20;54.00
39401;DHT22;54391;50.000;7.360;2023-03-26T01:37:44;6.30;53.80
39401;DHT22;54391;50.000;7.360;2023-03-26T01:40:23;6.20;53.20
39401;DHT22;54391;50.000;7.360;2023-03-26T01:42:58;6.30;53.30
39401;DHT22;54391;50.000;7.360;2023-03-26T01:45:33;6.30;52.40
39401;DHT22;54391;50.000;7.360;2023-03-26T01:48:01;6.20;52.40
39401;DHT22;54391;50.000;7.360;2023-03-26T01:50:28;6.20;52.20
39401;DHT22;54391;50.000;7.360;2023-03-26T01:52:56;6.20;52.80
39401;DHT22;54391;50.000;7.360;2023-03-26T01:55:28;6.20;52.40
39401;DHT22;54391;50.000;7.360;2023-03-26T01:58:04;6.20;52.60
39401;DHT22;54391;50.000;7.360;2023-03-26T02:00:38;6.20;51.70
39401;DHT22;54391;50.000;7.360;2023-03-26T02:03:15;6.20;51.40
39401;DHT22;54391;50.000;7.360;2023-03-26T02:05:51;6.20;51.40
39401;DHT22;54391;50.000;7.360;2023-03-26T02:08:22;6.20;51.50
39401;DHT22;54391;50.000;7.360;2023-03-26T02:15:56;6.20;51.00
39401;DHT22;54391;50.000;7.360;2023-03-26T02:18:24;6.30;51.30
39401;DHT22;54391;50.000;7.360;2023-03-26T02:21:04;6.30;51.50
39401;DHT22;54391;50.000;7.360;2023-03-26T02:23:38;6.30;51.10
39401;DHT22;54391;50.000;7.360;2023-03-26T02:26:08;6.30;50.70
39401;DHT22;54391;50.000;7.360;2023-03-26T02:28:45;6.40;50.10
39401;DHT22;54391;50.000;7.360;2023-03-26T02:31:14;6.30;50.20
39401;DHT22;54391;50.000;7.360;2023-03-26T02:36:13;6.40;49.70
39401;DHT22;54391;50.000;7.360;2023-03-26T02:49:40;6.40;48.20
39401;DHT22;54391;50.000;7.360;2023-03-26T02:57:14;6.40;48.40
39401;DHT22;54391;50.000;7.360;2023-03-26T03:00:06;6.40;48.70
39401;DHT22;54391;50.000;7.360;2023-03-26T03:02:46;6.40;48.70
39401;DHT22;54391;50.000;7.360;2023-03-26T03:05:23;6.40;48.60
39401;DHT22;54391;50.000;7.360;2023-03-26T03:07:58;6.40;49.20
39401;DHT22;54391;50.000;7.360;2023-03-26T03:10:27;6.40;48.80
39401;DHT22;54391;50.000;7.360;2023-03-26T03:13:23;6.30;50.00
39401;DHT22;54391;50.000;7.360;2023-03-26T03:15:50;6.20;50.80
39401;DHT22;54391;50.000;7.360;2023-03-26T03:23:12;6.20;52.70
39401;DHT22;54391;50.000;7.360;2023-03-26T03:25:39;6.20;54.50
39401;DHT22;54391;50.000;7.360;2023-03-26T03:28:07;6.20;56.00
39401;DHT22;54391;50.000;7.360;2023-03-26T03:33:19;6.10;56.80
39401;DHT22;54391;50.000;7.360;2023-03-26T03:35:47;6.10;57.60
39401;DHT22;54391;50.000;7.360;2023-03-26T03:38:15;6.10;57.60
39401;DHT22;54391;50.000;7.360;2023-03-26T03:40:47;6.10;57.50
39401;DHT22;54391;50.000;7.360;2023-03-26T03:43:14;6.10;58.00
39401;DHT22;54391;50.000;7.360;2023-03-26T03:53:59;6.00;58.50
39401;DHT22;54391;50.000;7.360;2023-03-26T03:56:46;6.00;58.60
39401;DHT22;54391;50.000;7.360;2023-03-26T03:59:16;6.00;58.60
39401;DHT22;54391;50.000;7.360;2023-03-26T04:01:45;6.00;59.30
39401;DHT22;54391;50.000;7.360;2023-03-26T04:04:39;6.00;60.50
39401;DHT22;54391;50.000;7.360;2023-03-26T04:07:11;6.00;60.10
39401;DHT22;54391;50.000;7.360;2023-03-26T04:09:59;5.90;60.10
39401;DHT22;54391;50.000;7.360;2023-03-26T04:12:42;10.10;64.20
39401;DHT22;54391;50.000;7.360;2023-03-26T04:15:14;5.80;62.60
39401;DHT22;54391;50.000;7.360;2023-03-26T04:22:44;5.70;66.20
39401;DHT22;54391;50.000;7.360;2023-03-26T04:25:14;5.80;65.50
39401;DHT22;54391;50.000;7.360;2023-03-26T04:27:53;5.80;64.80
39401;DHT22;54391;50.000;7.360;2023-03-26T04:30:52;5.80;66.30
39401;DHT22;54391;50.000;7.360;2023-03-26T04:33:47;5.80;67.50
39401;DHT22;54391;50.000;7.360;2023-03-26T04:36:17;5.70;68.10
39401;DHT22;54391;50.000;7.360;2023-03-26T04:38:49;5.70;68.30
39401;DHT22;54391;50.000;7.360;2023-03-26T04:41:20;5.60;69.80
39401;DHT22;54391;50.000;7.360;2023-03-26T04:44:04;5.50;70.90
39401;DHT22;54391;50.000;7.360;2023-03-26T04:49:25;5.40;72.90
39401;DHT22;54391;50.000;7.360;2023-03-26T04:51:52;5.40;73.50
39401;DHT22;54391;50.000;7.360;2023-03-26T04:54:48;5.20;73.70
39401;DHT22;54391;50.000;7.360;2023-03-26T04:57:20;5.40;74.10
39401;DHT22;54391;50.000;7.360;2023-03-26T05:07:24;5.30;75.20
39401;DHT22;54391;50.000;7.360;2023-03-26T05:09:59;5.20;77.80
39401;DHT22;54391;50.000;7.360;2023-03-26T05:12:42;5.20;78.10
39401;DHT22;54391;50.000;7.360;2023-03-26T05:15:15;5.30;79.20
39401;DHT22;54391;50.000;7.360;2023-03-26T05:18:06;5.30;78.70
39401;DHT22;54391;50.000;7.360;2023-03-26T05:20:41;5.30;79.30
39401;DHT22;54391;50.000;7.360;2023-03-26T05:23:09;5.20;79.60
39401;DHT22;54391;50.000;7.360;2023-03-26T05:28:22;5.20;80.80
39401;DHT22;54391;50.000;7.360;2023-03-26T05:31:08;5.10;81.60
39401;DHT22;54391;50.000;7.360;2023-03-26T05:46:24;5.20;89.60
39401;DHT22;54391;50.000;7.360;2023-03-26T05:48:52;5.20;90.40
39401;DHT22;54391;50.000;7.360;2023-03-26T05:57:01;5.00;95.30
39401;DHT22;54391;50.000;7.360;2023-03-26T05:59:47;5.00;96.30
39401;DHT22;54391;50.000;7.360;2023-03-26T06:02:32;5.00;96.70
39401;DHT22;54391;50.000;7.360;2023-03-26T06:05:26;4.90;97.20
39401;DHT22;54391;50.000;7.360;2023-03-26T06:08:25;4.90;97.80
39401;DHT22;54391;50.000;7.360;2023-03-26T06:10:57;5.00;97.20
39401;DHT22;54391;50.000;7.360;2023-03-26T06:31:52;5.10;96.70
39401;DHT22;54391;50.000;7.360;2023-03-26T07:10:15;5.10;95.10
39401;DHT22;54391;50.000;7.360;2023-03-26T07:29:16;4.90;85.90
39401;DHT22;54391;50.000;7.360;2023-03-26T07:32:11;4.80;79.40
39401;DHT22;54391;50.000;7.360;2023-03-26T07:39:08;4.60;80.90
39401;DHT22;54391;50.000;7.360;2023-03-26T07:42:22;4.50;84.30
39401;DHT22;54391;50.000;7.360;2023-03-26T07:45:24;4.60;86.20
39401;DHT22;54391;50.000;7.360;2023-03-26T07:48:20;4.60;88.90
39401;DHT22;54391;50.000;7.360;2023-03-26T08:06:07;4.50;91.80
39401;DHT22;54391;50.000;7.360;2023-03-26T08:08:59;4.40;90.40
39401;DHT22;54391;50.000;7.360;2023-03-26T08:12:08;4.40;90.80
39401;DHT22;54391;50.000;7.360;2023-03-26T08:14:46;4.50;93.20
39401;DHT22;54391;50.000;7.360;2023-03-26T08:17:21;4.50;90.90
39401;DHT22;54391;50.000;7.360;2023-03-26T08:19:58;4.50;92.70
39401;DHT22;54391;50.000;7.360;2023-03-26T08:22:39;4.50;92.40
39401;DHT22;54391;50.000;7.360;2023-03-26T08:25:19;4.50;93.40
39401;DHT22;54391;50.000;7.360;2023-03-26T08:28:13;4.50;94.50
39401;DHT22;54391;50.000;7.360;2023-03-26T08:30:42;4.40;92.30
39401;DHT22;54391;50.000;7.360;2023-03-26T08:33:16;4.50;93.30
39401;DHT22;54391;50.000;7.360;2023-03-26T08:38:13;4.60;93.50
39401;DHT22;54391;50.000;7.360;2023-03-26T08:50:50;5.60;78.90
39401;DHT22;54391;50.000;7.360;2023-03-26T08:53:50;5.60;84.30
39401;DHT22;54391;50.000;7.360;2023-03-26T08:56:26;5.40;84.10
39401;DHT22;54391;50.000;7.360;2023-03-26T09:02:07;5.20;90.80
39401;DHT22;54391;50.000;7.360;2023-03-26T09:05:03;5.30;90.90
39401;DHT22;54391;50.000;7.360;2023-03-26T09:08:22;5.30;92.30
39401;DHT22;54391;50.000;7.360;2023-03-26T09:11:24;5.40;93.00
39401;DHT22;54391;50.000;7.360;2023-03-26T09:20:45;5.80;92.60
39401;DHT22;54391;50.000;7.360;2023-03-26T09:23:53;5.70;90.00
39401;DHT22;54391;50.000;7.360;2023-03-26T09:26:44;5.70;88.60
39401;DHT22;54391;50.000;7.360;2023-03-26T09:29:48;5.80;90.40
39401;DHT22;54391;50.000;7.360;2023-03-26T09:36:02;5.90;89.70
39401;DHT22;54391;50.000;7.360;2023-03-26T09:38:42;6.10;89.90
39401;DHT22;54391;50.000;7.360;2023-03-26T09:41:19;6.20;85.30
39401;DHT22;54391;50.000;7.360;2023-03-26T09:44:15;6.30;82.90
39401;DHT22;54391;50.000;7.360;2023-03-26T09:50:36;6.20;81.80
39401;DHT22;54391;50.000;7.360;2023-03-26T09:55:57;6.10;91.00
39401;DHT22;54391;50.000;7.360;2023-03-26T10:01:10;6.10;94.90
39401;DHT22;54391;50.000;7.360;2023-03-26T10:03:48;6.20;93.60
39401;DHT22;54391;50.000;7.360;2023-03-26T10:06:35;6.20;89.80
39401;DHT22;54391;50.000;7.360;2023-03-26T10:09:27;6.40;95.30
39401;DHT22;54391;50.000;7.360;2023-03-26T10:12:04;6.80;93.10
39401;DHT22;54391;50.000;7.360;2023-03-26T10:14:39;6.90;86.10
39401;DHT22;54391;50.000;7.360;2023-03-26T10:17:23;6.70;83.80
39401;DHT22;54391;50.000;7.360;2023-03-26T10:20:01;6.90;78.70
39401;DHT22;54391;50.000;7.360;2023-03-26T10:22:43;7.30;70.30
39401;DHT22;54391;50.000;7.360;2023-03-26T10:25:28;7.90;79.00
39401;DHT22;54391;50.000;7.360;2023-03-26T10:28:07;8.70;59.30
39401;DHT22;54391;50.000;7.360;2023-03-26T10:30:58;8.50;48.00
39401;DHT22;54391;50.000;7.360;2023-03-26T10:36:14;9.10;58.80
39401;DHT22;54391;50.000;7.360;2023-03-26T10:39:00;9.20;55.30
39401;DHT22;54391;50.000;7.360;2023-03-26T10:41:34;8.70;52.60
39401;DHT22;54391;50.000;7.360;2023-03-26T10:44:23;8.30;54.00
39401;DHT22;54391;50.000;7.360;2023-03-26T10:47:30;8.10;56.80
39401;DHT22;54391;50.000;7.360;2023-03-26T10:50:17;7.90;55.70
39401;DHT22;54391;50.000;7.360;2023-03-26T10:52:50;7.60;55.50
39401;DHT22;54391;50.000;7.360;2023-03-26T10:55:21;7.70;57.70
39401;DHT22;54391;50.000;7.360;2023-03-26T10:57:52;7.70;61.70
39401;DHT22;54391;50.000;7.360;2023-03-26T11:00:22;7.70;58.00
39401;DHT22;54391;50.000;7.360;2023-03-26T11:03:10;7.70;59.20
39401;DHT22;54391;50.000;7.360;2023-03-26T11:05:46;7.70;50.70
39401;DHT22;54391;50.000;7.360;2023-03-26T11:08:21;7.60;50.20
39401;DHT22;54391;50.000;7.360;2023-03-26T11:10:53;7.60;47.10
39401;DHT22;54391;50.000;7.360;2023-03-26T11:13:32;7.70;49.10
39401;DHT22;54391;50.000;7.360;2023-03-26T11:16:03;7.70;46.70
39401;DHT22;54391;50.000;7.360;2023-03-26T11:18:38;7.80;46.60
39401;DHT22;54391;50.000;7.360;2023-03-26T11:21:15;9.30;45.20
39401;DHT22;54391;50.000;7.360;2023-03-26T11:23:52;8.00;49.20
39401;DHT22;54391;50.000;7.360;2023-03-26T11:26:26;7.80;44.50
39401;DHT22;54391;50.000;7.360;2023-03-26T11:29:10;7.70;45.90
39401;DHT22;54391;50.000;7.360;2023-03-26T11:31:50;7.70;45.70
39401;DHT22;54391;50.000;7.360;2023-03-26T11:34:29;7.80;43.50
39401;DHT22;54391;50.000;7.360;2023-03-26T11:36:58;7.80;46.70
39401;DHT22;54391;50.000;7.360;2023-03-26T11:39:32;7.70;43.90
39401;DHT22;54391;50.000;7.360;2023-03-26T11:42:04;7.70;44.80
39401;DHT22;54391;50.000;7.360;2023-03-26T11:44:43;7.70;43.80
39401;DHT22;54391;50.000;7.360;2023-03-26T11:47:15;7.70;43.20
39401;DHT22;54391;50.000;7.360;2023-03-26T11:49:46;7.70;43.40
39401;DHT22;54391;50.000;7.360;2023-03-26T11:57:17;8.20;35.40
39401;DHT22;54391;50.000;7.360;2023-03-26T11:59:50;8.30;32.40
39401;DHT22;54391;50.000;7.360;2023-03-26T12:02:25;8.40;31.30
39401;DHT22;54391;50.000;7.360;2023-03-26T12:05:11;8.70;32.40
39401;DHT22;54391;50.000;7.360;2023-03-26T12:07:45;8.60;31.90
39401;DHT22;54391;50.000;7.360;2023-03-26T12:10:29;8.80;35.70
39401;DHT22;54391;50.000;7.360;2023-03-26T12:13:00;9.00;32.30
39401;DHT22;54391;50.000;7.360;2023-03-26T12:15:29;9.00;28.20
39401;DHT22;54391;50.000;7.360;2023-03-26T12:17:57;8.90;24.80
39401;DHT22;54391;50.000;7.360;2023-03-26T12:20:34;9.50;24.30
39401;DHT22;54391;50.000;7.360;2023-03-26T12:23:04;9.30;21.60
39401;DHT22;54391;50.000;7.360;2023-03-26T12:25:34;9.60;25.20
39401;DHT22;54391;50.000;7.360;2023-03-26T12:28:03;9.50;21.20
39401;DHT22;54391;50.000;7.360;2023-03-26T12:30:32;9.80;24.20
39401;DHT22;54391;50.000;7.360;2023-03-26T12:33:01;10.10;15.70
39401;DHT22;54391;50.000;7.360;2023-03-26T12:35:31;9.90;19.40
39401;DHT22;54391;50.000;7.360;2023-03-26T12:38:22;10.30;18.80
39401;DHT22;54391;50.000;7.360;2023-03-26T12:41:06;10.30;16.80
39401;DHT22;54391;50.000;7.360;2023-03-26T12:43:39;10.10;17.60
39401;DHT22;54391;50.000;7.360;2023-03-26T12:46:23;10.10;18.90
39401;DHT22;54391;50.000;7.360;2023-03-26T12:48:51;9.80;19.50
39401;DHT22;54391;50.000;7.360;2023-03-26T12:51:29;9.90;20.90
39401;DHT22;54391;50.000;7.360;2023-03-26T12:54:12;10.50;17.60
39401;DHT22;54391;50.000;7.360;2023-03-26T12:56:48;10.90;15.30
39401;DHT22;54391;50.000;7.360;2023-03-26T13:02:04;10.30;15.40
39401;DHT22;54391;50.000;7.360;2023-03-26T13:04:58;10.10;14.60
39401;DHT22;54391;50.000;7.360;2023-03-26T13:07:38;10.40;18.30
39401;DHT22;54391;50.000;7.360;2023-03-26T13:10:32;10.40;17.00
39401;DHT22;54391;50.000;7.360;2023-03-26T13:13:16;10.20;18.50
39401;DHT22;54391;50.000;7.360;2023-03-26T13:15:46;10.60;19.80
39401;DHT22;54391;50.000;7.360;2023-03-26T13:18:25;7.50;14.80
39401;DHT22;54391;50.000;7.360;2023-03-26T13:20:58;10.20;14.60
39401;DHT22;54391;50.000;7.360;2023-03-26T13:23:38;10.10;14.10
39401;DHT22;54391;50.000;7.360;2023-03-26T13:26:17;9.90;16.50
39401;DHT22;54391;50.000;7.360;2023-03-26T13:29:01;10.10;16.20
39401;DHT22;54391;50.000;7.360;2023-03-26T13:31:34;10.30;18.20
39401;DHT22;54391;50.000;7.360;2023-03-26T13:34:09;10.70;16.20
39401;DHT22;54391;50.000;7.360;2023-03-26T13:36:45;10.80;16.10
39401;DHT22;54391;50.000;7.360;2023-03-26T13:39:24;10.70;11.80
39401;DHT22;54391;50.000;7.360;2023-03-26T13:42:17;10.70;15.90
39401;DHT22;54391;50.000;7.360;2023-03-26T13:44:57;10.50;14.40
39401;DHT22;54391;50.000;7.360;2023-03-26T13:47:29;10.30;16.10
39401;DHT22;54391;50.000;7.360;2023-03-26T13:50:02;10.20;15.10
39401;DHT22;54391;50.000;7.360;2023-03-26T13:52:35;10.20;16.60
39401;DHT22;54391;50.000;7.360;2023-03-26T13:55:16;10.20;16.40
39401;DHT22;54391;50.000;7.360;2023-03-26T13:57:50;10.10;16.10
39401;DHT22;54391;50.000;7.360;2023-03-26T14:00:22;10.20;18.70
39401;DHT22;54391;50.000;7.360;2023-03-26T14:02:54;10.30;16.50
39401;DHT22;54391;50.000;7.360;2023-03-26T14:05:26;9.90;15.90
39401;DHT22;54391;50.000;7.360;2023-03-26T14:07:58;10.30;19.00
39401;DHT22;54391;50.000;7.360;2023-03-26T14:10:30;10.40;13.80
39401;DHT22;54391;50.000;7.360;2023-03-26T14:13:03;10.10;13.00
39401;DHT22;54391;50.000;7.360;2023-03-26T14:15:36;10.00;15.20
39401;DHT22;54391;50.000;7.360;2023-03-26T14:18:26;9.90;16.30
39401;DHT22;54391;50.000;7.360;2023-03-26T14:21:11;9.60;17.80
39401;DHT22;54391;50.000;7.360;2023-03-26T14:29:36;7.70;45.40
39401;DHT22;54391;50.000;7.360;2023-03-26T14:32:28;7.10;54.70
39401;DHT22;54391;50.000;7.360;2023-03-26T14:35:10;6.80;64.80
39401;DHT22;54391;50.000;7.360;2023-03-26T14:38:05;6.80;63.40
39401;DHT22;54391;50.000;7.360;2023-03-26T14:41:01;6.60;70.20
39401;DHT22;54391;50.000;7.360;2023-03-26T14:52:46;3.40;59.30
39401;DHT22;54391;50.000;7.360;2023-03-26T14:55:18;6.90;66.90
39401;DHT22;54391;50.000;7.360;2023-03-26T15:01:20;7.40;56.30
39401;DHT22;54391;50.000;7.360;2023-03-26T15:04:17;7.60;53.80
39401;DHT22;54391;50.000;7.360;2023-03-26T15:07:21;7.80;50.40
39401;DHT22;54391;50.000;7.360;2023-03-26T15:13:06;7.80;44.70
39401;DHT22;54391;50.000;7.360;2023-03-26T15:22:24;7.60;48.80
39401;DHT22;54391;50.000;7.360;2023-03-26T15:25:36;7.60;45.50
39401;DHT22;54391;50.000;7.360;2023-03-26T15:31:21;7.50;48.20
39401;DHT22;54391;50.000;7.360;2023-03-26T15:34:30;7.40;48.40
39401;DHT22;54391;50.000;7.360;2023-03-26T15:37:36;7.60;49.90
39401;DHT22;54391;50.000;7.360;2023-03-26T15:40:41;7.60;49.50
39401;DHT22;54391;50.000;7.360;2023-03-26T15:43:11;7.60;50.10
39401;DHT22;54391;50.000;7.360;2023-03-26T15:45:40;7.60;50.70
39401;DHT22;54391;50.000;7.360;2023-03-26T15:51:27;7.50;56.80
39401;DHT22;54391;50.000;7.360;2023-03-26T15:54:00;7.50;56.20
39401;DHT22;54391;50.000;7.360;2023-03-26T15:57:06;7.50;54.70
39401;DHT22;54391;50.000;7.360;2023-03-26T15:59:41;7.20;52.70
39401;DHT22;54391;50.000;7.360;2023-03-26T16:02:23;7.00;52.30
39401;DHT22;54391;50.000;7.360;2023-03-26T16:04:54;7.00;52.80
39401;DHT22;54391;50.000;7.360;2023-03-26T16:07:42;6.90;49.00
39401;DHT22;54391;50.000;7.360;2023-03-26T16:10:20;6.70;49.80
39401;DHT22;54391;50.000;7.360;2023-03-26T16:12:57;6.60;54.70
39401;DHT22;54391;50.000;7.360;2023-03-26T16:15:40;6.50;54.80
39401;DHT22;54391;50.000;7.360;2023-03-26T16:18:33;6.50;55.50
39401;DHT22;54391;50.000;7.360;2023-03-26T16:21:31;6.40;56.70
39401;DHT22;54391;50.000;7.360;2023-03-26T16:24:26;6.40;56.50
39401;DHT22;54391;50.000;7.360;2023-03-26T16:30:13;6.40;65.70
39401;DHT22;54391;50.000;7.360;2023-03-26T16:32:44;6.50;69.30
39401;DHT22;54391;50.000;7.360;2023-03-26T16:35:37;6.50;69.80
39401;DHT22;54391;50.000;7.360;2023-03-26T16:38:10;4.00;69.10
39401;DHT22;54391;50.000;7.360;2023-03-26T16:41:00;6.40;71.40
39401;DHT22;54391;50.000;7.360;2023-03-26T16:43:53;6.40;76.50
39401;DHT22;54391;50.000;7.360;2023-03-26T16:49:09;6.30;81.00
39401;DHT22;54391;50.000;7.360;2023-03-26T16:51:52;6.20;82.00
39401;DHT22;54391;50.000;7.360;2023-03-26T16:54:25;6.10;83.30
39401;DHT22;54391;50.000;7.360;2023-03-26T16:57:00;6.10;81.80
39401;DHT22;54391;50.000;7.360;2023-03-26T16:59:56;6.10;85.50
39401;DHT22;54391;50.000;7.360;2023-03-26T17:02:33;6.20;85.40
39401;DHT22;54391;50.000;7.360;2023-03-26T17:05:16;6.20;85.60
39401;DHT22;54391;50.000;7.360;2023-03-26T17:07:48;6.10;87.20
39401;DHT22;54391;50.000;7.360;2023-03-26T17:10:24;5.70;69.00
39401;DHT22;54391;50.000;7.360;2023-03-26T17:13:03;5.60;76.20
39401;DHT22;54391;50.000;7.360;2023-03-26T17:15:39;5.60;76.80
39401;DHT22;54391;50.000;7.360;2023-03-26T17:18:31;5.60;78.30
39401;DHT22;54391;50.000;7.360;2023-03-26T17:21:03;5.50;79.80
39401;DHT22;54391;50.000;7.360;2023-03-26T17:23:43;5.60;79.60
39401;DHT22;54391;50.000;7.360;2023-03-26T17:26:22;5.70;81.00
39401;DHT22;54391;50.000;7.360;2023-03-26T17:29:15;5.80;81.70
39401;DHT22;54391;50.000;7.360;2023-03-26T17:31:47;5.90;84.40
39401;DHT22;54391;50.000;7.360;2023-03-26T17:34:38;5.90;84.80
39401;DHT22;54391;50.000;7.360;2023-03-26T17:37:27;6.10;83.00
39401;DHT22;54391;50.000;7.360;2023-03-26T17:43:08;5.80;82.30
39401;DHT22;54391;50.000;7.360;2023-03-26T17:45:38;5.80;84.10
39401;DHT22;54391;50.000;7.360;2023-03-26T17:48:14;5.70;86.90
39401;DHT22;54391;50.000;7.360;2023-03-26T17:50:49;6.00;87.00
39401;DHT22;54391;50.000;7.360;2023-03-26T17:53:21;5.70;88.80
39401;DHT22;54391;50.000;7.360;2023-03-26T17:55:50;5.70;88.60
39401;DHT22;54391;50.000;7.360;2023-03-26T17:58:24;5.60;92.10
39401;DHT22;54391;50.000;7.360;2023-03-26T18:01:03;5.70;91.90
39401;DHT22;54391;50.000;7.360;2023-03-26T18:03:33;5.50;94.00
39401;DHT22;54391;50.000;7.360;2023-03-26T18:06:06;5.60;96.20
39401;DHT22;54391;50.000;7.360;2023-03-26T18:08:57;5.50;95.30
39401;DHT22;54391;50.000;7.360;2023-03-26T18:11:42;5.60;97.20
39401;DHT22;54391;50.000;7.360;2023-03-26T18:14:40;5.50;97.70
39401;DHT22;54391;50.000;7.360;2023-03-26T18:17:11;5.50;97.40
39401;DHT22;54391;50.000;7.360;2023-03-26T18:19:48;5.50;99.90
39401;DHT22;54391;50.000;7.360;2023-03-26T18:22:19;5.40;97.60
39401;DHT22;54391;50.000;7.360;2023-03-26T18:24:48;5.50;99.20
39401;DHT22;54391;50.000;7.360;2023-03-26T18:27:17;5.70;99.80
39401;DHT22;54391;50.000;7.360;2023-03-26T18:29:56;5.40;99.70
39401;DHT22;54391;50.000;7.360;2023-03-26T18:32:26;5.40;99.50
39401;DHT22;54391;50.000;7.360;2023-03-26T18:34:57;5.40;99.60
39401;DHT22;54391;50.000;7.360;2023-03-26T18:37:27;5.40;98.90
39401;DHT22;54391;50.000;7.360;2023-03-26T18:39:59;5.50;98.80
39401;DHT22;54391;50.000;7.360;2023-03-26T18:42:29;5.40;96.30
39401;DHT22;54391;50.000;7.360;2023-03-26T18:44:58;5.40;97.40
39401;DHT22;54391;50.000;7.360;2023-03-26T18:47:30;5.40;96.50
39401;DHT22;54391;50.000;7.360;2023-03-26T18:49:58;5.40;95.50
39401;DHT22;54391;50.000;7.360;2023-03-26T18:52:27;5.40;96.30
39401;DHT22;54391;50.000;7.360;2023-03-26T18:54:55;5.40;96.30
39401;DHT22;54391;50.000;7.360;2023-03-26T18:57:28;5.30;97.20
39401;DHT22;54391;50.000;7.360;2023-03-26T19:00:07;5.30;96.50
39401;DHT22;54391;50.000;7.360;2023-03-26T19:02:43;5.30;95.40
39401;DHT22;54391;50.000;7.360;2023-03-26T19:05:13;5.30;94.70
39401;DHT22;54391;50.000;7.360;2023-03-26T19:07:41;5.30;94.10
39401;DHT22;54391;50.000;7.360;2023-03-26T19:10:14;5.40;95.60
39401;DHT22;54391;50.000;7.360;2023-03-26T19:12:43;5.30;96.10
39401;DHT22;54391;50.000;7.360;2023-03-26T19:15:14;5.30;96.80
39401;DHT22;54391;50.000;7.360;2023-03-26T19:17:44;5.40;95.30
39401;DHT22;54391;50.000;7.360;2023-03-26T19:20:15;5.30;94.80
39401;DHT22;54391;50.000;7.360;2023-03-26T19:22:45;5.20;93.00
39401;DHT22;54391;50.000;7.360;2023-03-26T19:25:19;5.20;95.00
39401;DHT22;54391;50.000;7.360;2023-03-26T19:27:47;5.10;92.00
39401;DHT22;54391;50.000;7.360;2023-03-26T19:30:22;5.10;91.10
39401;DHT22;54391;50.000;7.360;2023-03-26T19:32:54;5.10;90.90
39401;DHT22;54391;50.000;7.360;2023-03-26T19:35:35;5.00;92.50
39401;DHT22;54391;50.000;7.360;2023-03-26T19:38:22;5.00;92.50
39401;DHT22;54391;50.000;7.360;2023-03-26T19:40:51;5.00;91.10
39401;DHT22;54391;50.000;7.360;2023-03-26T19:43:19;4.90;89.00
39401;DHT22;54391;50.000;7.360;2023-03-26T19:45:49;4.80;89.20
39401;DHT22;54391;50.000;7.360;2023-03-26T19:48:20;4.80;88.50
39401;DHT22;54391;50.000;7.360;2023-03-26T19:50:59;4.80;90.50
39401;DHT22;54391;50.000;7.360;2023-03-26T19:53:30;4.70;91.90
39401;DHT22;54391;50.000;7.360;2023-03-26T19:56:03;4.70;93.40
39401;DHT22;54391;50.000;7.360;2023-03-26T19:58:37;4.70;94.60
39401;DHT22;54391;50.000;7.360;2023-03-26T20:01:05;4.70;95.60
39401;DHT22;54391;50.000;7.360;2023-03-26T20:03:38;4.70;96.70
39401;DHT22;54391;50.000;7.360;2023-03-26T20:06:09;4.70;97.50
39401;DHT22;54391;50.000;7.360;2023-03-26T20:08:37;4.60;95.10
39401;DHT22;54391;50.000;7.360;2023-03-26T20:11:08;4.60;94.00
39401;DHT22;54391;50.000;7.360;2023-03-26T20:16:08;4.60;94.50
39401;DHT22;54391;50.000;7.360;2023-03-26T20:18:40;4.70;96.70
39401;DHT22;54391;50.000;7.360;2023-03-26T20:21:09;4.60;96.70
39401;DHT22;54391;50.000;7.360;2023-03-26T20:30:59;4.70;95.70
39401;DHT22;54391;50.000;7.360;2023-03-26T20:35:57;4.60;95.40
39401;DHT22;54391;50.000;7.360;2023-03-26T20:38:24;4.70;95.90
39401;DHT22;54391;50.000;7.360;2023-03-26T20:40:52;4.70;96.20
39401;DHT22;54391;50.000;7.360;2023-03-26T20:43:21;4.60;94.50
39401;DHT22;54391;50.000;7.360;2023-03-26T20:50:45;4.60;93.30
39401;DHT22;54391;50.000;7.360;2023-03-26T20:55:44;4.60;94.00
39401;DHT22;54391;50.000;7.360;2023-03-26T20:58:12;4.60;93.90
39401;DHT22;54391;50.000;7.360;2023-03-26T21:00:40;4.60;94.40
39401;DHT22;54391;50.000;7.360;2023-03-26T21:03:11;4.60;94.20
39401;DHT22;54391;50.000;7.360;2023-03-26T21:05:39;4.50;94.50
39401;DHT22;54391;50.000;7.360;2023-03-26T21:08:12;4.50;94.00
39401;DHT22;54391;50.000;7.360;2023-03-26T21:10:42;4.50;94.40
39401;DHT22;54391;50.000;7.360;2023-03-26T21:13:12;4.50;94.10
39401;DHT22;54391;50.000;7.360;2023-03-26T21:15:40;4.50;93.80
39401;DHT22;54391;50.000;7.360;2023-03-26T21:18:08;4.40;93.70
39401;DHT22;54391;50.000;7.360;2023-03-26T21:23:09;4.00;94.30
39401;DHT22;54391;50.000;7.360;2023-03-26T21:25:45;4.40;95.10
39401;DHT22;54391;50.000;7.360;2023-03-26T21:28:23;4.40;95.20
39401;DHT22;54391;50.000;7.360;2023-03-26T21:30:51;4.30;95.60
39401;DHT22;54391;50.000;7.360;2023-03-26T21:38:18;4.30;94.90
39401;DHT22;54391;50.000;7.360;2023-03-26T21:43:16;4.30;93.80
39401;DHT22;54391;50.000;7.360;2023-03-26T21:45:44;4.20;93.10
39401;DHT22;54391;50.000;7.360;2023-03-26T21:48:13;4.20;92.30
39401;DHT22;54391;50.000;7.360;2023-03-26T21:50:41;4.20;91.70
39401;DHT22;54391;50.000;7.360;2023-03-26T21:53:09;4.10;91.40